sensor_id;sensor_type;location;lat;lon;timestamp;temperature;humidity
14349;DHT22;7258;50.376;8.742;2023-03-19T00:00:39;10.30;99.90
14349;DHT22;7258;50.376;8.742;2023-03-19T00:02:42;10.20;99.90
14349;DHT22;7258;50.376;8.742;2023-03-19T00:04:50;10.20;99.90
14349;DHT22;7258;50.376;8.742;2023-03-19T00:06:53;10.20;99.90
14349;DHT22;7258;50.376;8.742;2023-03-19T00:08:56;10.20;99.90
14349;DHT22;7258;50.376;8.742;2023-03-19T00:11:05;10.10;99.90
14349;DHT22;7258;50.376;8.742;2023-03-19T00:13:07;10.10;99.90
14349;DHT22;7258;50.376;8.742;2023-03-19T00:15:12;10.10;99.90
14349;DHT22;7258;50.376;8.742;2023-03-19T00:17:15;10.10;99.90
14349;DHT22;7258;50.376;8.742;2023-03-19T00:19:20;10.10;99.90
14349;DHT22;7258;50.376;8.742;2023-03-19T00:21:23;10.10;99.90
14349;DHT22;7258;50.376;8.742;2023-03-19T00:23:26;10.10;99.90
14349;DHT22;7258;50.376;8.742;2023-03-19T00:25:29;10.00;99.90
14349;DHT22;7258;50.376;8.742;2023-03-19T00:27:33;10.00;99.90
14349;DHT22;7258;50.376;8.742;2023-03-19T00:29:36;10.00;99.90
14349;DHT22;7258;50.376;8.742;2023-03-19T00:31:40;10.00;99.90
14349;DHT22;7258;50.376;8.742;2023-03-19T00:33:43;10.00;99.90
14349;DHT22;7258;50.376;8.742;2023-03-19T00:35:47;10.00;99.90
14349;DHT22;7258;50.376;8.742;2023-03-19T00:37:50;10.00;99.90
14349;DHT22;7258;50.376;8.742;2023-03-19T00:39:53;10.00;99.90
14349;DHT22;7258;50.376;8.742;2023-03-19T00:41:56;10.00;99.90
14349;DHT22;7258;50.376;8.742;2023-03-19T00:43:58;10.00;99.90
14349;DHT22;7258;50.376;8.742;2023-03-19T00:46:02;10.10;99.90
14349;DHT22;7258;50.376;8.742;2023-03-19T00:48:06;10.10;99.90
14349;DHT22;7258;50.376;8.742;2023-03-19T00:50:12;10.10;99.90
14349;DHT22;7258;50.376;8.742;2023-03-19T00:52:15;10.10;99.90
14349;DHT22;7258;50.376;8.742;2023-03-19T00:54:18;10.20;99.90
14349;DHT22;7258;50.376;8.742;2023-03-19T00:56:20;10.10;99.90
14349;DHT22;7258;50.376;8.742;2023-03-19T00:58:24;10.10;99.90
14349;DHT22;7258;50.376;8.742;2023-03-19T01:00:26;10.10;99.90
14349;DHT22;7258;50.376;8.742;2023-03-19T01:02:30;10.10;99.90
14349;DHT22;7258;50.376;8.742;2023-03-19T01:04:35;10.10;99.90
14349;DHT22;7258;50.376;8.742;2023-03-19T01:06:38;10.10;99.90
14349;DHT22;7258;50.376;8.742;2023-03-19T01:08:41;10.10;99.90
14349;DHT22;7258;50.376;8.742;2023-03-19T01:10:44;10.10;99.90
14349;DHT22;7258;50.376;8.742;2023-03-19T01:12:47;10.10;99.90
14349;DHT22;7258;50.376;8.742;2023-03-19T01:14:51;10.00;99.90
14349;DHT22;7258;50.376;8.742;2023-03-19T01:16:53;10.00;99.90
14349;DHT22;7258;50.376;8.742;2023-03-19T01:18:57;10.00;99.90
14349;DHT22;7258;50.376;8.742;2023-03-19T01:21:01;10.00;99.90
14349;DHT22;7258;50.376;8.742;2023-03-19T01:23:05;10.00;99.90
14349;DHT22;7258;50.376;8.742;2023-03-19T01:25:09;10.00;99.90
14349;DHT22;7258;50.376;8.742;2023-03-19T01:27:12;10.00;99.90
14349;DHT22;7258;50.376;8.742;2023-03-19T01:29:15;10.00;99.90
14349;DHT22;7258;50.376;8.742;2023-03-19T01:31:18;10.00;99.90
14349;DHT22;7258;50.376;8.742;2023-03-19T01:33:23;10.00;99.90
14349;DHT22;7258;50.376;8.742;2023-03-19T01:35:28;10.00;99.90
14349;DHT22;7258;50.376;8.742;2023-03-19T01:37:32;10.00;99.90
14349;DHT22;7258;50.376;8.742;2023-03-19T01:39:35;10.00;99.90
14349;DHT22;7258;50.376;8.742;2023-03-19T01:41:38;10.00;99.90
14349;DHT22;7258;50.376;8.742;2023-03-19T01:43:41;10.00;99.90
14349;DHT22;7258;50.376;8.742;2023-03-19T01:45:45;10.00;99.90
14349;DHT22;7258;50.376;8.742;2023-03-19T01:47:52;9.90;99.90
14349;DHT22;7258;50.376;8.742;2023-03-19T01:49:55;9.90;99.90
14349;DHT22;7258;50.376;8.742;2023-03-19T01:52:02;9.90;99.90
14349;DHT22;7258;50.376;8.742;2023-03-19T01:54:13;9.90;99.90
14349;DHT22;7258;50.376;8.742;2023-03-19T01:56:19;9.90;99.90
14349;DHT22;7258;50.376;8.742;2023-03-19T01:58:22;9.80;99.90
14349;DHT22;7258;50.376;8.742;2023-03-19T02:00:27;9.80;99.90
14349;DHT22;7258;50.376;8.742;2023-03-19T02:02:33;9.80;99.90
14349;DHT22;7258;50.376;8.742;2023-03-19T02:04:40;9.80;99.90
14349;DHT22;7258;50.376;8.742;2023-03-19T02:06:45;9.80;99.90
14349;DHT22;7258;50.376;8.742;2023-03-19T02:08:49;9.80;99.90
14349;DHT22;7258;50.376;8.742;2023-03-19T02:10:54;9.90;99.90
14349;DHT22;7258;50.376;8.742;2023-03-19T02:13:00;9.90;99.90
14349;DHT22;7258;50.376;8.742;2023-03-19T02:15:04;9.90;99.90
14349;DHT22;7258;50.376;8.742;2023-03-19T02:17:07;9.90;99.90
14349;DHT22;7258;50.376;8.742;2023-03-19T02:19:15;9.90;99.90
14349;DHT22;7258;50.376;8.742;2023-03-19T02:21:19;9.90;99.90
14349;DHT22;7258;50.376;8.742;2023-03-19T02:23:32;9.90;99.90
14349;DHT22;7258;50.376;8.742;2023-03-19T02:26:00;10.00;99.90
14349;DHT22;7258;50.376;8.742;2023-03-19T02:28:04;10.00;99.90
14349;DHT22;7258;50.376;8.742;2023-03-19T02:30:23;10.00;99.90
14349;DHT22;7258;50.376;8.742;2023-03-19T02:32:27;10.00;99.90
14349;DHT22;7258;50.376;8.742;2023-03-19T02:34:37;10.00;99.90
14349;DHT22;7258;50.376;8.742;2023-03-19T02:36:45;10.00;99.90
14349;DHT22;7258;50.376;8.742;2023-03-19T02:38:49;10.00;99.90
14349;DHT22;7258;50.376;8.742;2023-03-19T02:40:59;10.00;99.90
14349;DHT22;7258;50.376;8.742;2023-03-19T02:43:02;10.00;99.90
14349;DHT22;7258;50.376;8.742;2023-03-19T02:45:09;9.90;99.90
14349;DHT22;7258;50.376;8.742;2023-03-19T02:47:12;10.00;99.90
14349;DHT22;7258;50.376;8.742;2023-03-19T02:49:16;9.90;99.90
14349;DHT22;7258;50.376;8.742;2023-03-19T02:51:19;10.00;99.90
14349;DHT22;7258;50.376;8.742;2023-03-19T02:53:22;10.00;99.90
14349;DHT22;7258;50.376;8.742;2023-03-19T02:55:25;10.00;99.90
14349;DHT22;7258;50.376;8.742;2023-03-19T02:57:29;10.00;99.90
14349;DHT22;7258;50.376;8.742;2023-03-19T02:59:32;10.00;99.90
14349;DHT22;7258;50.376;8.742;2023-03-19T03:01:36;10.00;99.90
14349;DHT22;7258;50.376;8.742;2023-03-19T03:03:39;10.00;99.90
14349;DHT22;7258;50.376;8.742;2023-03-19T03:05:42;10.00;99.90
14349;DHT22;7258;50.376;8.742;2023-03-19T03:07:46;10.00;99.90
14349;DHT22;7258;50.376;8.742;2023-03-19T03:09:50;10.00;99.90
14349;DHT22;7258;50.376;8.742;2023-03-19T03:11:53;10.00;99.90
14349;DHT22;7258;50.376;8.742;2023-03-19T03:13:57;10.00;99.90
14349;DHT22;7258;50.376;8.742;2023-03-19T03:16:00;10.00;99.90
14349;DHT22;7258;50.376;8.742;2023-03-19T03:18:04;10.00;99.90
14349;DHT22;7258;50.376;8.742;2023-03-19T03:20:08;10.00;99.90
14349;DHT22;7258;50.376;8.742;2023-03-19T03:22:12;9.90;99.90
14349;DHT22;7258;50.376;8.742;2023-03-19T03:24:15;9.90;99.90
14349;DHT22;7258;50.376;8.742;2023-03-19T03:26:18;9.90;99.90
14349;DHT22;7258;50.376;8.742;2023-03-19T03:28:21;9.90;99.90
14349;DHT22;7258;50.376;8.742;2023-03-19T03:30:26;9.90;99.90
14349;DHT22;7258;50.376;8.742;2023-03-19T03:32:29;9.90;99.90
14349;DHT22;7258;50.376;8.742;2023-03-19T03:34:32;9.90;99.90
14349;DHT22;7258;50.376;8.742;2023-03-19T03:36:35;9.90;99.90
14349;DHT22;7258;50.376;8.742;2023-03-19T03:38:39;9.80;99.90
14349;DHT22;7258;50.376;8.742;2023-03-19T03:40:42;9.80;99.90
14349;DHT22;7258;50.376;8.742;2023-03-19T03:42:44;9.80;99.90
14349;DHT22;7258;50.376;8.742;2023-03-19T03:44:47;9.80;99.90
14349;DHT22;7258;50.376;8.742;2023-03-19T03:46:51;9.70;99.90
14349;DHT22;7258;50.376;8.742;2023-03-19T03:48:54;9.70;99.90
14349;DHT22;7258;50.376;8.742;2023-03-19T03:50:57;9.60;99.90
14349;DHT22;7258;50.376;8.742;2023-03-19T03:53:00;9.60;99.90
14349;DHT22;7258;50.376;8.742;2023-03-19T03:55:03;9.50;99.90
14349;DHT22;7258;50.376;8.742;2023-03-19T03:57:06;9.40;99.90
14349;DHT22;7258;50.376;8.742;2023-03-19T03:59:09;9.30;99.90
14349;DHT22;7258;50.376;8.742;2023-03-19T04:01:14;9.20;99.90
14349;DHT22;7258;50.376;8.742;2023-03-19T04:03:20;9.10;99.90
14349;DHT22;7258;50.376;8.742;2023-03-19T04:05:25;9.00;99.90
14349;DHT22;7258;50.376;8.742;2023-03-19T04:07:28;8.90;99.90
14349;DHT22;7258;50.376;8.742;2023-03-19T04:09:31;8.90;99.90
14349;DHT22;7258;50.376;8.742;2023-03-19T04:11:34;8.80;99.90
14349;DHT22;7258;50.376;8.742;2023-03-19T04:13:37;8.70;99.90
14349;DHT22;7258;50.376;8.742;2023-03-19T04:15:41;8.60;99.90
14349;DHT22;7258;50.376;8.742;2023-03-19T04:17:44;8.50;99.90
14349;DHT22;7258;50.376;8.742;2023-03-19T04:19:49;8.50;99.90
14349;DHT22;7258;50.376;8.742;2023-03-19T04:21:55;8.40;99.90
14349;DHT22;7258;50.376;8.742;2023-03-19T04:23:58;8.40;99.90
14349;DHT22;7258;50.376;8.742;2023-03-19T04:26:02;8.40;99.90
14349;DHT22;7258;50.376;8.742;2023-03-19T04:28:06;8.40;99.90
14349;DHT22;7258;50.376;8.742;2023-03-19T04:30:10;8.40;99.90
14349;DHT22;7258;50.376;8.742;2023-03-19T04:32:14;8.40;99.90
14349;DHT22;7258;50.376;8.742;2023-03-19T04:34:17;8.40;99.90
14349;DHT22;7258;50.376;8.742;2023-03-19T04:36:22;8.40;99.90
14349;DHT22;7258;50.376;8.742;2023-03-19T04:38:25;8.30;99.90
14349;DHT22;7258;50.376;8.742;2023-03-19T04:40:28;8.30;99.90
14349;DHT22;7258;50.376;8.742;2023-03-19T04:42:31;8.40;99.90
14349;DHT22;7258;50.376;8.742;2023-03-19T04:44:34;8.30;99.90
14349;DHT22;7258;50.376;8.742;2023-03-19T04:46:38;8.30;99.90
14349;DHT22;7258;50.376;8.742;2023-03-19T04:48:41;8.30;99.90
14349;DHT22;7258;50.376;8.742;2023-03-19T04:50:46;8.30;99.90
14349;DHT22;7258;50.376;8.742;2023-03-19T04:52:54;8.30;99.90
14349;DHT22;7258;50.376;8.742;2023-03-19T04:54:57;8.30;99.90
14349;DHT22;7258;50.376;8.742;2023-03-19T04:56:59;8.30;99.90
14349;DHT22;7258;50.376;8.742;2023-03-19T04:59:02;8.30;99.90
14349;DHT22;7258;50.376;8.742;2023-03-19T05:01:07;8.30;99.90
14349;DHT22;7258;50.376;8.742;2023-03-19T05:03:10;8.30;99.90
14349;DHT22;7258;50.376;8.742;2023-03-19T05:05:13;8.20;99.90
14349;DHT22;7258;50.376;8.742;2023-03-19T05:07:16;8.20;99.90
14349;DHT22;7258;50.376;8.742;2023-03-19T05:09:20;8.20;99.90
14349;DHT22;7258;50.376;8.742;2023-03-19T05:11:23;8.20;99.90
14349;DHT22;7258;50.376;8.742;2023-03-19T05:13:27;8.20;99.90
14349;DHT22;7258;50.376;8.742;2023-03-19T05:15:30;8.20;99.90
14349;DHT22;7258;50.376;8.742;2023-03-19T05:17:33;8.20;99.90
14349;DHT22;7258;50.376;8.742;2023-03-19T05:19:36;8.20;99.90
14349;DHT22;7258;50.376;8.742;2023-03-19T05:21:40;8.20;99.90
14349;DHT22;7258;50.376;8.742;2023-03-19T05:23:43;8.20;99.90
14349;DHT22;7258;50.376;8.742;2023-03-19T05:25:48;8.20;99.90
14349;DHT22;7258;50.376;8.742;2023-03-19T05:27:52;8.10;99.90
14349;DHT22;7258;50.376;8.742;2023-03-19T05:29:55;8.10;99.90
14349;DHT22;7258;50.376;8.742;2023-03-19T05:31:58;8.10;99.90
14349;DHT22;7258;50.376;8.742;2023-03-19T05:34:03;8.10;99.90
14349;DHT22;7258;50.376;8.742;2023-03-19T05:36:07;8.10;99.90
14349;DHT22;7258;50.376;8.742;2023-03-19T05:38:11;8.10;99.90
14349;DHT22;7258;50.376;8.742;2023-03-19T05:40:14;8.10;99.90
14349;DHT22;7258;50.376;8.742;2023-03-19T05:42:18;8.10;99.90
14349;DHT22;7258;50.376;8.742;2023-03-19T05:44:22;8.20;99.90
14349;DHT22;7258;50.376;8.742;2023-03-19T05:46:26;8.20;99.90
14349;DHT22;7258;50.376;8.742;2023-03-19T05:48:30;8.20;99.90
14349;DHT22;7258;50.376;8.742;2023-03-19T05:50:34;8.20;99.90
14349;DHT22;7258;50.376;8.742;2023-03-19T05:52:37;8.20;99.90
14349;DHT22;7258;50.376;8.742;2023-03-19T05:54:40;8.10;99.90
14349;DHT22;7258;50.376;8.742;2023-03-19T05:56:43;8.10;99.90
14349;DHT22;7258;50.376;8.742;2023-03-19T05:58:47;8.10;99.90
14349;DHT22;7258;50.376;8.742;2023-03-19T06:00:50;8.10;99.90
14349;DHT22;7258;50.376;8.742;2023-03-19T06:02:54;8.20;99.90
14349;DHT22;7258;50.376;8.742;2023-03-19T06:04:58;8.20;99.90
14349;DHT22;7258;50.376;8.742;2023-03-19T06:07:03;8.20;99.90
14349;DHT22;7258;50.376;8.742;2023-03-19T06:09:13;8.20;99.90
14349;DHT22;7258;50.376;8.742;2023-03-19T06:11:24;8.20;99.90
14349;DHT22;7258;50.376;8.742;2023-03-19T06:13:28;8.20;99.90
14349;DHT22;7258;50.376;8.742;2023-03-19T06:15:36;8.30;99.90
14349;DHT22;7258;50.376;8.742;2023-03-19T06:17:45;8.30;99.90
14349;DHT22;7258;50.376;8.742;2023-03-19T06:19:48;8.30;99.90
14349;DHT22;7258;50.376;8.742;2023-03-19T06:21:51;8.40;99.90
14349;DHT22;7258;50.376;8.742;2023-03-19T06:23:54;8.40;99.90
14349;DHT22;7258;50.376;8.742;2023-03-19T06:25:57;8.50;99.90
14349;DHT22;7258;50.376;8.742;2023-03-19T06:28:00;8.50;99.90
14349;DHT22;7258;50.376;8.742;2023-03-19T06:30:07;8.60;99.90
14349;DHT22;7258;50.376;8.742;2023-03-19T06:32:16;8.70;99.90
14349;DHT22;7258;50.376;8.742;2023-03-19T06:34:24;8.70;99.90
14349;DHT22;7258;50.376;8.742;2023-03-19T06:36:28;8.80;99.90
14349;DHT22;7258;50.376;8.742;2023-03-19T06:38:36;8.90;99.90
14349;DHT22;7258;50.376;8.742;2023-03-19T06:40:40;8.90;99.90
14349;DHT22;7258;50.376;8.742;2023-03-19T06:42:45;9.00;99.90
14349;DHT22;7258;50.376;8.742;2023-03-19T06:44:48;9.10;99.90
14349;DHT22;7258;50.376;8.742;2023-03-19T06:46:54;9.20;99.90
14349;DHT22;7258;50.376;8.742;2023-03-19T06:48:59;9.20;99.90
14349;DHT22;7258;50.376;8.742;2023-03-19T06:51:02;9.30;99.90
14349;DHT22;7258;50.376;8.742;2023-03-19T06:53:07;9.40;99.90
14349;DHT22;7258;50.376;8.742;2023-03-19T06:55:39;9.50;99.90
14349;DHT22;7258;50.376;8.742;2023-03-19T06:57:47;9.50;99.90
14349;DHT22;7258;50.376;8.742;2023-03-19T07:00:05;9.60;99.90
14349;DHT22;7258;50.376;8.742;2023-03-19T07:02:15;9.70;99.90
14349;DHT22;7258;50.376;8.742;2023-03-19T07:04:24;9.80;99.90
14349;DHT22;7258;50.376;8.742;2023-03-19T07:06:28;9.80;99.90
14349;DHT22;7258;50.376;8.742;2023-03-19T07:08:36;9.90;99.90
14349;DHT22;7258;50.376;8.742;2023-03-19T07:10:40;10.00;99.90
14349;DHT22;7258;50.376;8.742;2023-03-19T07:12:48;10.00;99.90
14349;DHT22;7258;50.376;8.742;2023-03-19T07:14:54;10.10;99.90
14349;DHT22;7258;50.376;8.742;2023-03-19T07:17:03;10.10;99.90
14349;DHT22;7258;50.376;8.742;2023-03-19T07:19:16;10.20;99.90
14349;DHT22;7258;50.376;8.742;2023-03-19T07:21:22;10.20;99.90
14349;DHT22;7258;50.376;8.742;2023-03-19T07:23:25;10.20;99.90
14349;DHT22;7258;50.376;8.742;2023-03-19T07:25:29;10.30;99.90
14349;DHT22;7258;50.376;8.742;2023-03-19T07:27:35;10.30;99.90
14349;DHT22;7258;50.376;8.742;2023-03-19T07:29:39;10.30;99.90
14349;DHT22;7258;50.376;8.742;2023-03-19T07:31:43;10.40;99.90
14349;DHT22;7258;50.376;8.742;2023-03-19T07:33:49;10.50;99.90
14349;DHT22;7258;50.376;8.742;2023-03-19T07:36:02;10.50;99.90
14349;DHT22;7258;50.376;8.742;2023-03-19T07:38:23;10.60;99.90
14349;DHT22;7258;50.376;8.742;2023-03-19T07:40:28;10.70;99.90
14349;DHT22;7258;50.376;8.742;2023-03-19T07:42:31;10.70;99.90
14349;DHT22;7258;50.376;8.742;2023-03-19T07:44:38;10.80;99.90
14349;DHT22;7258;50.376;8.742;2023-03-19T07:46:45;10.80;99.90
14349;DHT22;7258;50.376;8.742;2023-03-19T07:48:48;10.90;99.90
14349;DHT22;7258;50.376;8.742;2023-03-19T07:50:52;10.90;99.90
14349;DHT22;7258;50.376;8.742;2023-03-19T07:52:56;11.00;99.90
14349;DHT22;7258;50.376;8.742;2023-03-19T07:55:01;11.00;99.90
14349;DHT22;7258;50.376;8.742;2023-03-19T07:57:04;11.10;99.90
14349;DHT22;7258;50.376;8.742;2023-03-19T07:59:31;11.10;99.90
14349;DHT22;7258;50.376;8.742;2023-03-19T08:01:36;11.20;99.90
14349;DHT22;7258;50.376;8.742;2023-03-19T08:03:46;11.30;99.90
14349;DHT22;7258;50.376;8.742;2023-03-19T08:05:55;11.20;99.90
14349;DHT22;7258;50.376;8.742;2023-03-19T08:08:08;11.20;99.90
14349;DHT22;7258;50.376;8.742;2023-03-19T08:10:31;11.20;99.90
14349;DHT22;7258;50.376;8.742;2023-03-19T08:12:40;11.20;99.90
14349;DHT22;7258;50.376;8.742;2023-03-19T08:14:49;11.20;99.90
14349;DHT22;7258;50.376;8.742;2023-03-19T08:17:00;11.20;99.90
14349;DHT22;7258;50.376;8.742;2023-03-19T08:19:10;11.10;99.90
14349;DHT22;7258;50.376;8.742;2023-03-19T08:21:13;11.20;99.90
14349;DHT22;7258;50.376;8.742;2023-03-19T08:23:18;11.20;99.90
14349;DHT22;7258;50.376;8.742;2023-03-19T08:25:30;11.20;99.90
14349;DHT22;7258;50.376;8.742;2023-03-19T08:27:51;11.30;99.90
14349;DHT22;7258;50.376;8.742;2023-03-19T08:30:01;11.30;99.90
14349;DHT22;7258;50.376;8.742;2023-03-19T08:32:05;11.30;99.90
14349;DHT22;7258;50.376;8.742;2023-03-19T08:34:28;11.40;99.90
14349;DHT22;7258;50.376;8.742;2023-03-19T08:36:47;11.50;99.90
14349;DHT22;7258;50.376;8.742;2023-03-19T08:38:55;11.60;99.90
14349;DHT22;7258;50.376;8.742;2023-03-19T08:41:01;11.80;99.90
14349;DHT22;7258;50.376;8.742;2023-03-19T08:43:05;11.90;99.90
14349;DHT22;7258;50.376;8.742;2023-03-19T08:45:10;12.10;99.90
14349;DHT22;7258;50.376;8.742;2023-03-19T08:47:24;12.20;99.90
14349;DHT22;7258;50.376;8.742;2023-03-19T08:49:27;12.40;99.90
14349;DHT22;7258;50.376;8.742;2023-03-19T08:51:37;12.50;99.90
14349;DHT22;7258;50.376;8.742;2023-03-19T08:53:41;12.70;99.90
14349;DHT22;7258;50.376;8.742;2023-03-19T08:55:44;12.70;99.90
14349;DHT22;7258;50.376;8.742;2023-03-19T08:57:52;12.80;99.90
14349;DHT22;7258;50.376;8.742;2023-03-19T08:59:58;12.90;99.90
14349;DHT22;7258;50.376;8.742;2023-03-19T09:02:01;13.00;99.90
14349;DHT22;7258;50.376;8.742;2023-03-19T09:04:08;13.10;99.90
14349;DHT22;7258;50.376;8.742;2023-03-19T09:06:12;13.30;99.90
14349;DHT22;7258;50.376;8.742;2023-03-19T09:08:15;13.40;99.90
14349;DHT22;7258;50.376;8.742;2023-03-19T09:10:18;13.40;99.90
14349;DHT22;7258;50.376;8.742;2023-03-19T09:12:21;13.30;99.90
14349;DHT22;7258;50.376;8.742;2023-03-19T09:14:31;13.20;99.90
14349;DHT22;7258;50.376;8.742;2023-03-19T09:16:42;13.10;99.90
14349;DHT22;7258;50.376;8.742;2023-03-19T09:18:45;13.00;99.90
14349;DHT22;7258;50.376;8.742;2023-03-19T09:20:54;12.90;99.90
14349;DHT22;7258;50.376;8.742;2023-03-19T09:23:00;12.90;99.90
14349;DHT22;7258;50.376;8.742;2023-03-19T09:25:04;12.90;99.90
14349;DHT22;7258;50.376;8.742;2023-03-19T09:27:07;12.90;99.90
14349;DHT22;7258;50.376;8.742;2023-03-19T09:29:15;12.90;99.90
14349;DHT22;7258;50.376;8.742;2023-03-19T09:31:19;12.90;99.90
14349;DHT22;7258;50.376;8.742;2023-03-19T09:33:23;12.90;99.90
14349;DHT22;7258;50.376;8.742;2023-03-19T09:35:26;12.90;99.90
14349;DHT22;7258;50.376;8.742;2023-03-19T09:37:32;12.90;99.90
14349;DHT22;7258;50.376;8.742;2023-03-19T09:39:35;13.00;99.90
14349;DHT22;7258;50.376;8.742;2023-03-19T09:41:48;13.10;99.90
14349;DHT22;7258;50.376;8.742;2023-03-19T09:43:59;13.20;99.90
14349;DHT22;7258;50.376;8.742;2023-03-19T09:46:09;13.30;99.90
14349;DHT22;7258;50.376;8.742;2023-03-19T09:48:18;13.40;99.90
14349;DHT22;7258;50.376;8.742;2023-03-19T09:50:23;13.60;99.90
14349;DHT22;7258;50.376;8.742;2023-03-19T09:52:39;13.80;99.90
14349;DHT22;7258;50.376;8.742;2023-03-19T09:54:44;14.00;99.90
14349;DHT22;7258;50.376;8.742;2023-03-19T09:56:49;14.20;99.90
14349;DHT22;7258;50.376;8.742;2023-03-19T09:58:52;14.40;99.90
14349;DHT22;7258;50.376;8.742;2023-03-19T10:00:55;14.80;99.90
14349;DHT22;7258;50.376;8.742;2023-03-19T10:03:05;15.20;99.90
14349;DHT22;7258;50.376;8.742;2023-03-19T10:05:18;15.70;99.90
14349;DHT22;7258;50.376;8.742;2023-03-19T10:07:43;16.10;99.90
14349;DHT22;7258;50.376;8.742;2023-03-19T10:12:33;16.70;99.90
14349;DHT22;7258;50.376;8.742;2023-03-19T10:15:01;16.90;99.90
14349;DHT22;7258;50.376;8.742;2023-03-19T10:17:09;16.90;99.90
14349;DHT22;7258;50.376;8.742;2023-03-19T10:19:20;16.90;99.90
14349;DHT22;7258;50.376;8.742;2023-03-19T10:21:29;16.80;99.90
14349;DHT22;7258;50.376;8.742;2023-03-19T10:23:42;16.80;99.90
14349;DHT22;7258;50.376;8.742;2023-03-19T10:25:46;16.70;99.90
14349;DHT22;7258;50.376;8.742;2023-03-19T10:27:53;16.50;99.90
14349;DHT22;7258;50.376;8.742;2023-03-19T10:29:57;16.40;99.90
14349;DHT22;7258;50.376;8.742;2023-03-19T10:32:04;16.30;99.90
14349;DHT22;7258;50.376;8.742;2023-03-19T10:36:40;16.00;99.90
14349;DHT22;7258;50.376;8.742;2023-03-19T10:38:43;15.90;99.90
14349;DHT22;7258;50.376;8.742;2023-03-19T10:40:55;15.80;99.90
14349;DHT22;7258;50.376;8.742;2023-03-19T10:43:05;15.70;99.90
14349;DHT22;7258;50.376;8.742;2023-03-19T10:45:20;15.50;99.90
14349;DHT22;7258;50.376;8.742;2023-03-19T10:47:25;15.30;99.90
14349;DHT22;7258;50.376;8.742;2023-03-19T10:49:28;15.20;99.90
14349;DHT22;7258;50.376;8.742;2023-03-19T10:51:36;15.10;99.90
14349;DHT22;7258;50.376;8.742;2023-03-19T10:53:42;14.90;99.90
14349;DHT22;7258;50.376;8.742;2023-03-19T10:55:47;14.80;99.90
14349;DHT22;7258;50.376;8.742;2023-03-19T10:58:00;14.70;99.90
14349;DHT22;7258;50.376;8.742;2023-03-19T11:00:05;14.70;99.90
14349;DHT22;7258;50.376;8.742;2023-03-19T11:02:16;14.70;99.90
14349;DHT22;7258;50.376;8.742;2023-03-19T11:04:21;14.80;99.90
14349;DHT22;7258;50.376;8.742;2023-03-19T11:06:26;15.00;99.90
14349;DHT22;7258;50.376;8.742;2023-03-19T11:08:29;15.10;99.90
14349;DHT22;7258;50.376;8.742;2023-03-19T11:10:44;15.30;99.90
14349;DHT22;7258;50.376;8.742;2023-03-19T11:12:53;15.40;99.90
14349;DHT22;7258;50.376;8.742;2023-03-19T11:14:57;15.50;99.90
14349;DHT22;7258;50.376;8.742;2023-03-19T11:17:06;15.60;99.90
14349;DHT22;7258;50.376;8.742;2023-03-19T11:19:21;15.60;99.90
14349;DHT22;7258;50.376;8.742;2023-03-19T11:21:28;15.60;99.90
14349;DHT22;7258;50.376;8.742;2023-03-19T11:23:38;15.40;99.90
14349;DHT22;7258;50.376;8.742;2023-03-19T11:25:46;15.30;99.90
14349;DHT22;7258;50.376;8.742;2023-03-19T11:27:57;15.20;99.90
14349;DHT22;7258;50.376;8.742;2023-03-19T11:30:05;15.00;99.90
14349;DHT22;7258;50.376;8.742;2023-03-19T11:32:41;14.80;99.90
14349;DHT22;7258;50.376;8.742;2023-03-19T11:34:58;14.70;99.90
14349;DHT22;7258;50.376;8.742;2023-03-19T11:37:10;14.70;99.90
14349;DHT22;7258;50.376;8.742;2023-03-19T11:39:23;14.50;99.90
14349;DHT22;7258;50.376;8.742;2023-03-19T11:41:42;14.50;99.90
14349;DHT22;7258;50.376;8.742;2023-03-19T11:43:53;14.40;99.90
14349;DHT22;7258;50.376;8.742;2023-03-19T11:46:04;14.30;99.90
14349;DHT22;7258;50.376;8.742;2023-03-19T11:48:20;14.30;99.90
14349;DHT22;7258;50.376;8.742;2023-03-19T11:50:37;14.20;99.90
14349;DHT22;7258;50.376;8.742;2023-03-19T11:52:59;14.10;99.90
14349;DHT22;7258;50.376;8.742;2023-03-19T11:55:58;13.80;99.90
14349;DHT22;7258;50.376;8.742;2023-03-19T11:58:29;13.40;99.90
14349;DHT22;7258;50.376;8.742;2023-03-19T12:00:45;12.90;99.90
14349;DHT22;7258;50.376;8.742;2023-03-19T12:05:30;12.50;99.90
14349;DHT22;7258;50.376;8.742;2023-03-19T12:07:43;12.40;99.90
14349;DHT22;7258;50.376;8.742;2023-03-19T12:09:55;12.20;99.90
14349;DHT22;7258;50.376;8.742;2023-03-19T12:12:13;12.20;99.90
14349;DHT22;7258;50.376;8.742;2023-03-19T12:14:37;12.30;99.90
14349;DHT22;7258;50.376;8.742;2023-03-19T12:17:02;12.40;99.90
14349;DHT22;7258;50.376;8.742;2023-03-19T12:19:38;12.60;99.90
14349;DHT22;7258;50.376;8.742;2023-03-19T12:21:57;12.80;99.90
14349;DHT22;7258;50.376;8.742;2023-03-19T12:24:13;13.10;99.90
14349;DHT22;7258;50.376;8.742;2023-03-19T12:26:26;13.30;99.90
14349;DHT22;7258;50.376;8.742;2023-03-19T12:28:45;13.50;99.90
14349;DHT22;7258;50.376;8.742;2023-03-19T12:34:01;13.90;99.90
14349;DHT22;7258;50.376;8.742;2023-03-19T12:36:16;14.20;99.90
14349;DHT22;7258;50.376;8.742;2023-03-19T12:39:32;14.40;99.90
14349;DHT22;7258;50.376;8.742;2023-03-19T12:42:06;14.70;99.90
14349;DHT22;7258;50.376;8.742;2023-03-19T12:44:27;14.80;99.90
14349;DHT22;7258;50.376;8.742;2023-03-19T12:46:36;14.90;99.90
14349;DHT22;7258;50.376;8.742;2023-03-19T12:48:45;15.00;99.90
14349;DHT22;7258;50.376;8.742;2023-03-19T12:53:47;15.50;99.90
14349;DHT22;7258;50.376;8.742;2023-03-19T12:55:56;15.70;99.90
14349;DHT22;7258;50.376;8.742;2023-03-19T12:58:08;15.80;99.90
14349;DHT22;7258;50.376;8.742;2023-03-19T13:00:18;16.00;99.90
14349;DHT22;7258;50.376;8.742;2023-03-19T13:02:27;16.00;99.90
14349;DHT22;7258;50.376;8.742;2023-03-19T13:04:35;16.30;99.90
14349;DHT22;7258;50.376;8.742;2023-03-19T13:06:48;16.50;99.90
14349;DHT22;7258;50.376;8.742;2023-03-19T13:08:57;16.60;99.90
14349;DHT22;7258;50.376;8.742;2023-03-19T13:11:11;16.60;99.90
14349;DHT22;7258;50.376;8.742;2023-03-19T13:13:27;16.50;99.90
14349;DHT22;7258;50.376;8.742;2023-03-19T13:15:36;16.20;99.90
14349;DHT22;7258;50.376;8.742;2023-03-19T13:17:52;15.90;99.90
14349;DHT22;7258;50.376;8.742;2023-03-19T13:20:05;15.70;99.90
14349;DHT22;7258;50.376;8.742;2023-03-19T13:22:12;15.50;99.90
14349;DHT22;7258;50.376;8.742;2023-03-19T13:24:20;15.40;99.90
14349;DHT22;7258;50.376;8.742;2023-03-19T13:26:25;15.30;99.90
14349;DHT22;7258;50.376;8.742;2023-03-19T13:28:31;15.20;99.90
14349;DHT22;7258;50.376;8.742;2023-03-19T13:30:36;15.20;99.90
14349;DHT22;7258;50.376;8.742;2023-03-19T13:32:49;15.30;99.90
14349;DHT22;7258;50.376;8.742;2023-03-19T13:35:08;15.50;99.90
14349;DHT22;7258;50.376;8.742;2023-03-19T13:37:18;15.50;99.90
14349;DHT22;7258;50.376;8.742;2023-03-19T13:39:27;15.40;99.90
14349;DHT22;7258;50.376;8.742;2023-03-19T13:41:51;15.30;99.90
14349;DHT22;7258;50.376;8.742;2023-03-19T13:43:55;15.10;99.90
14349;DHT22;7258;50.376;8.742;2023-03-19T13:46:04;15.10;99.90
14349;DHT22;7258;50.376;8.742;2023-03-19T13:48:34;15.20;99.90
14349;DHT22;7258;50.376;8.742;2023-03-19T13:50:59;15.20;99.90
14349;DHT22;7258;50.376;8.742;2023-03-19T13:53:21;15.20;99.90
14349;DHT22;7258;50.376;8.742;2023-03-19T13:55:33;15.30;99.90
14349;DHT22;7258;50.376;8.742;2023-03-19T13:57:53;15.40;99.90